Galvin, Washington
Current Conditions -  °F | °C
As of 9:35 PM on Wednesday 22 Oct 2014 (Local Time) from KCLS Reporting Station
Light Rain Light Rain  
Wind Chill: 55°   Ceiling: 7000
Heat Index: 55°   Visibility: 10mi
Dew Point: 54°   Wind: 6mph
Humidity: 94%   Direction: 200°SSW
Pressure: 29.68"   Gusts: NA
Location:  46.74°N, 123.03°W
Report Text: KCLS 230435Z AUTO 20005KT 10SM -RA FEW041 SCT055 OVC070 13/12 A2968 RMK AO2
Loading
Personal Weather Stations






























Interactive Weather Map
Tropical Storm Tracking
New forecast layout! Learn more

10-Day Weather Forecast

Advertisements
Track Severe Weather on mobile